Time,TemperatureF,DewpointF,PressureIn,WindDirection,WindDirectionDegrees,WindSpeedMPH,WindSpeedGustMPH,Humidity,HourlyPrecipIn,Conditions,Clouds,dailyrainin,SoftwareType,DateUTC
2013-03-05 00:11:00,44.4,42.0,30.17,ENE,77,0.0,0.0,91,0.00,,,0.00,weatherlink.com 1.10,2013-03-05 05:11:00,
2013-03-05 00:26:00,45.9,44.0,30.17,ESE,120,0.0,0.0,94,0.00,,,0.00,weatherlink.com 1.10,2013-03-05 05:26:00,
2013-03-05 00:41:00,44.9,43.0,30.17,ESE,120,0.0,0.0,92,0.00,,,0.00,weatherlink.com 1.10,2013-03-05 05:41:00,
2013-03-05 00:56:00,44.9,43.0,30.16,ESE,110,0.0,0.0,94,0.00,,,0.00,weatherlink.com 1.10,2013-03-05 05:56:00,
2013-03-05 01:11:00,44.7,43.0,30.16,ESE,110,0.0,0.0,94,0.00,,,0.00,weatherlink.com 1.10,2013-03-05 06:11:00,
2013-03-05 01:26:00,44.5,43.0,30.16,ESE,110,0.0,0.0,94,0.00,,,0.00,weatherlink.com 1.10,2013-03-05 06:26:00,
2013-03-05 01:41:00,44.4,43.0,30.15,ESE,110,0.0,0.0,94,0.00,,,0.00,weatherlink.com 1.10,2013-03-05 06:41:00,
2013-03-05 01:56:00,44.5,43.0,30.15,ENE,72,0.0,0.0,95,0.00,,,0.00,weatherlink.com 1.10,2013-03-05 06:56:00,
2013-03-05 02:11:00,44.7,43.0,30.14,ENE,72,0.0,0.0,95,0.00,,,0.00,weatherlink.com 1.10,2013-03-05 07:11:00,
2013-03-05 02:26:00,44.9,44.0,30.14,ENE,72,0.0,0.0,95,0.00,,,0.00,weatherlink.com 1.10,2013-03-05 07:26:00,
2013-03-05 02:41:00,44.5,43.0,30.14,ENE,72,0.0,0.0,95,0.00,,,0.00,weatherlink.com 1.10,2013-03-05 07:41:00,
2013-03-05 03:11:00,43.3,42.0,30.14,ESE,109,0.0,0.0,95,0.00,,,0.00,weatherlink.com 1.10,2013-03-05 08:11:00,
2013-03-05 03:26:00,42.8,42.0,30.14,ESE,108,0.0,0.0,95,0.00,,,0.00,weatherlink.com 1.10,2013-03-05 08:26:00,
2013-03-05 03:41:00,43.5,43.0,30.14,ESE,122,0.0,0.0,97,0.00,,,0.00,weatherlink.com 1.10,2013-03-05 08:41:00,
2013-03-05 03:56:00,43.7,43.0,30.14,ENE,68,0.0,0.0,96,0.00,,,0.00,weatherlink.com 1.10,2013-03-05 08:56:00,
2013-03-05 04:11:00,43.7,43.0,30.13,ENE,72,0.0,0.0,96,0.00,,,0.00,weatherlink.com 1.10,2013-03-05 09:11:00,
2013-03-05 04:26:00,43.7,43.0,30.13,ESE,113,0.0,0.0,97,0.00,,,0.00,weatherlink.com 1.10,2013-03-05 09:26:00,
2013-03-05 04:41:00,43.1,42.0,30.13,ESE,115,0.0,0.0,95,0.00,,,0.00,weatherlink.com 1.10,2013-03-05 09:41:00,
2013-03-05 04:56:00,42.6,42.0,30.14,ESE,115,0.0,0.0,96,0.00,,,0.00,weatherlink.com 1.10,2013-03-05 09:56:00,
2013-03-05 05:11:00,42.5,42.0,30.14,ESE,114,0.0,0.0,97,0.00,,,0.00,weatherlink.com 1.10,2013-03-05 10:11:00,
2013-03-05 05:26:00,42.3,41.0,30.14,ESE,114,0.0,0.0,96,0.00,,,0.00,weatherlink.com 1.10,2013-03-05 10:26:00,
2013-03-05 05:41:00,42.9,42.0,30.15,ESE,111,0.0,0.0,97,0.00,,,0.00,weatherlink.com 1.10,2013-03-05 10:41:00,
2013-03-05 05:56:00,42.5,42.0,30.16,ESE,108,0.0,0.0,96,0.00,,,0.00,weatherlink.com 1.10,2013-03-05 10:56:00,
2013-03-05 06:11:00,41.9,41.0,30.16,ESE,109,0.0,0.0,96,0.00,,,0.00,weatherlink.com 1.10,2013-03-05 11:11:00,
2013-03-05 06:26:00,42.1,41.0,30.16,ESE,109,0.0,0.0,97,0.00,,,0.00,weatherlink.com 1.10,2013-03-05 11:26:00,
2013-03-05 06:41:00,41.9,41.0,30.16,ESE,109,0.0,0.0,96,0.00,,,0.00,weatherlink.com 1.10,2013-03-05 11:41:00,
2013-03-05 06:56:00,42.2,41.0,30.16,ESE,109,0.0,0.0,97,0.00,,,0.00,weatherlink.com 1.10,2013-03-05 11:56:00,
2013-03-05 07:11:00,42.7,42.0,30.16,ESE,113,0.0,0.0,97,0.00,,,0.00,weatherlink.com 1.10,2013-03-05 12:11:00,
2013-03-05 07:26:00,44.6,44.0,30.16,SSE,155,0.0,0.0,98,0.00,,,0.00,weatherlink.com 1.10,2013-03-05 12:26:00,
2013-03-05 07:41:00,47.7,47.0,30.16,ENE,77,0.0,2.0,98,0.00,,,0.00,weatherlink.com 1.10,2013-03-05 12:41:00,
2013-03-05 07:57:00,50.8,50.0,30.17,East,82,0.0,1.0,97,0.00,,,0.00,weatherlink.com 1.10,2013-03-05 12:57:00,
2013-03-05 08:12:00,53.2,51.0,30.17,NE,49,1.0,1.0,92,0.00,,,0.00,weatherlink.com 1.10,2013-03-05 13:12:00,
2013-03-05 08:27:00,55.6,53.0,30.17,East,100,0.0,2.0,89,0.00,,,0.00,weatherlink.com 1.10,2013-03-05 13:27:00,
2013-03-05 08:42:00,59.0,54.0,30.17,SE,132,1.0,4.0,82,0.00,,,0.00,weatherlink.com 1.10,2013-03-05 13:42:00,
2013-03-05 08:57:00,61.4,55.0,30.17,East,91,0.0,2.0,78,0.00,,,0.00,weatherlink.com 1.10,2013-03-05 13:57:00,
2013-03-05 09:12:00,64.0,55.0,30.17,SSE,149,0.0,4.0,72,0.00,,,0.00,weatherlink.com 1.10,2013-03-05 14:12:00,
2013-03-05 09:27:00,65.4,54.0,30.17,SSE,148,0.0,4.0,67,0.00,,,0.00,weatherlink.com 1.10,2013-03-05 14:27:00,
2013-03-05 09:42:00,66.2,54.0,30.17,SSE,158,3.0,7.0,64,0.00,,,0.00,weatherlink.com 1.10,2013-03-05 14:42:00,
2013-03-05 09:57:00,67.6,54.0,30.17,SE,139,5.0,9.0,62,0.00,,,0.00,weatherlink.com 1.10,2013-03-05 14:57:00,
2013-03-05 10:12:00,68.6,54.0,30.17,SSW,203,5.0,10.0,61,0.00,,,0.00,weatherlink.com 1.10,2013-03-05 15:12:00,
2013-03-05 10:27:00,68.9,54.0,30.18,South,173,4.0,11.0,60,0.00,,,0.00,weatherlink.com 1.10,2013-03-05 15:27:00,
2013-03-05 10:42:00,69.9,55.0,30.18,SSW,197,6.0,13.0,59,0.00,,,0.00,weatherlink.com 1.10,2013-03-05 15:42:00,
2013-03-05 10:57:00,71.0,56.0,30.18,South,181,9.0,13.0,59,0.00,,,0.00,weatherlink.com 1.10,2013-03-05 15:57:00,
2013-03-05 11:12:00,71.0,56.0,30.17,SSW,203,9.0,14.0,60,0.00,,,0.00,weatherlink.com 1.10,2013-03-05 16:12:00,
2013-03-05 11:27:00,71.3,56.0,30.17,SSE,158,5.0,15.0,59,0.00,,,0.00,weatherlink.com 1.10,2013-03-05 16:27:00,
2013-03-05 11:42:00,71.6,56.0,30.17,SSW,194,8.0,13.0,59,0.00,,,0.00,weatherlink.com 1.10,2013-03-05 16:42:00,
2013-03-05 11:57:00,71.4,56.0,30.16,SSW,197,10.0,14.0,58,0.00,,,0.00,weatherlink.com 1.10,2013-03-05 16:57:00,
2013-03-05 12:12:00,71.6,56.0,30.16,SW,222,11.0,15.0,58,0.00,,,0.00,weatherlink.com 1.10,2013-03-05 17:12:00,
2013-03-05 12:27:00,72.2,56.0,30.15,South,172,6.0,14.0,57,0.00,,,0.00,weatherlink.com 1.10,2013-03-05 17:27:00,
2013-03-05 12:42:00,72.1,56.0,30.14,South,180,5.0,16.0,58,0.00,,,0.00,weatherlink.com 1.10,2013-03-05 17:42:00,
2013-03-05 12:57:00,72.3,57.0,30.14,SW,215,10.0,16.0,58,0.00,,,0.00,weatherlink.com 1.10,2013-03-05 17:57:00,
2013-03-05 13:12:00,72.5,56.0,30.13,South,191,11.0,15.0,57,0.00,,,0.00,weatherlink.com 1.10,2013-03-05 18:12:00,
2013-03-05 13:27:00,73.0,57.0,30.13,SW,214,3.0,14.0,57,0.00,,,0.00,weatherlink.com 1.10,2013-03-05 18:27:00,
2013-03-05 13:57:00,72.9,57.0,30.11,SSW,197,12.0,13.0,57,0.00,,,0.00,weatherlink.com 1.10,2013-03-05 18:57:00,
2013-03-05 14:13:00,72.6,56.0,30.11,SSW,210,10.0,15.0,57,0.00,,,0.00,weatherlink.com 1.10,2013-03-05 19:13:00,
2013-03-05 14:28:00,72.8,56.0,30.10,SSW,204,9.0,14.0,55,0.00,,,0.00,weatherlink.com 1.10,2013-03-05 19:28:00,
2013-03-05 14:43:00,72.7,57.0,30.10,SSW,193,10.0,14.0,58,0.00,,,0.00,weatherlink.com 1.10,2013-03-05 19:43:00,
2013-03-05 14:58:00,72.4,56.0,30.10,SW,214,11.0,14.0,57,0.00,,,0.00,weatherlink.com 1.10,2013-03-05 19:58:00,
2013-03-05 15:13:00,72.5,57.0,30.10,SSW,211,9.0,14.0,59,0.00,,,0.00,weatherlink.com 1.10,2013-03-05 20:13:00,
2013-03-05 15:28:00,72.6,58.0,30.10,SSW,197,8.0,13.0,60,0.00,,,0.00,weatherlink.com 1.10,2013-03-05 20:28:00,
2013-03-05 15:43:00,73.0,58.0,30.10,SSW,197,8.0,14.0,60,0.00,,,0.00,weatherlink.com 1.10,2013-03-05 20:43:00,
2013-03-05 15:58:00,72.4,58.0,30.10,SSW,203,9.0,15.0,61,0.00,,,0.00,weatherlink.com 1.10,2013-03-05 20:58:00,
2013-03-05 16:13:00,71.5,58.0,30.11,SW,222,5.0,12.0,62,0.00,,,0.00,weatherlink.com 1.10,2013-03-05 21:13:00,
2013-03-05 16:28:00,71.2,59.0,30.10,WSW,248,9.0,11.0,65,0.00,,,0.00,weatherlink.com 1.10,2013-03-05 21:28:00,
2013-03-05 16:43:00,71.4,59.0,30.10,SW,229,5.0,11.0,65,0.00,,,0.00,weatherlink.com 1.10,2013-03-05 21:43:00,
2013-03-05 16:58:00,70.5,59.0,30.10,WSW,246,8.0,10.0,67,0.00,,,0.00,weatherlink.com 1.10,2013-03-05 21:58:00,
2013-03-05 17:13:00,69.9,59.0,30.11,SSW,201,5.0,8.0,68,0.00,,,0.00,weatherlink.com 1.10,2013-03-05 22:13:00,
2013-03-05 17:28:00,69.2,59.0,30.12,West,275,6.0,8.0,70,0.00,,,0.00,weatherlink.com 1.10,2013-03-05 22:28:00,
2013-03-05 17:43:00,68.4,59.0,30.12,WSW,250,6.0,9.0,71,0.00,,,0.00,weatherlink.com 1.10,2013-03-05 22:43:00,
2013-03-05 17:58:00,67.9,59.0,30.13,WSW,254,2.0,7.0,74,0.00,,,0.00,weatherlink.com 1.10,2013-03-05 22:58:00,
2013-03-05 18:13:00,66.9,59.0,30.12,WSW,246,1.0,4.0,75,0.00,,,0.00,weatherlink.com 1.10,2013-03-05 23:13:00,
2013-03-05 18:28:00,65.8,58.0,30.11,SW,215,2.0,4.0,77,0.00,,,0.00,weatherlink.com 1.10,2013-03-05 23:28:00,
2013-03-05 18:43:00,64.6,58.0,30.11,South,190,0.0,3.0,79,0.00,,,0.00,weatherlink.com 1.10,2013-03-05 23:43:00,
2013-03-05 18:58:00,63.3,58.0,30.11,WSW,254,0.0,1.0,82,0.00,,,0.00,weatherlink.com 1.10,2013-03-05 23:58:00,
2013-03-05 19:13:00,62.0,57.0,30.11,West,264,0.0,0.0,83,0.00,,,0.00,weatherlink.com 1.10,2013-03-06 00:13:00,
2013-03-05 19:28:00,60.5,56.0,30.11,WSW,255,0.0,0.0,86,0.00,,,0.00,weatherlink.com 1.10,2013-03-06 00:28:00,
2013-03-05 19:43:00,59.9,56.0,30.11,WSW,252,0.0,1.0,88,0.00,,,0.00,weatherlink.com 1.10,2013-03-06 00:43:00,
2013-03-05 19:58:00,59.8,57.0,30.11,West,263,0.0,0.0,89,0.00,,,0.00,weatherlink.com 1.10,2013-03-06 00:58:00,
2013-03-05 20:13:00,59.1,56.0,30.10,WSW,238,1.0,3.0,90,0.00,,,0.00,weatherlink.com 1.10,2013-03-06 01:13:00,
2013-03-05 20:28:00,59.1,57.0,30.10,WSW,244,0.0,1.0,91,0.00,,,0.00,weatherlink.com 1.10,2013-03-06 01:28:00,
2013-03-05 20:43:00,58.3,56.0,30.10,WSW,253,0.0,0.0,92,0.00,,,0.00,weatherlink.com 1.10,2013-03-06 01:43:00,
2013-03-05 20:58:00,57.0,55.0,30.11,WSW,253,0.0,0.0,91,0.00,,,0.00,weatherlink.com 1.10,2013-03-06 01:58:00,
2013-03-05 21:13:00,56.7,55.0,30.11,SE,132,0.0,0.0,93,0.00,,,0.00,weatherlink.com 1.10,2013-03-06 02:13:00,
2013-03-05 21:28:00,56.7,55.0,30.11,East,99,0.0,0.0,93,0.00,,,0.00,weatherlink.com 1.10,2013-03-06 02:28:00,
2013-03-05 21:43:00,55.9,54.0,30.11,East,99,0.0,0.0,94,0.00,,,0.00,weatherlink.com 1.10,2013-03-06 02:43:00,
2013-03-05 21:58:00,55.7,54.0,30.11,ENE,62,0.0,0.0,95,0.00,,,0.00,weatherlink.com 1.10,2013-03-06 02:58:00,
2013-03-05 22:13:00,56.2,55.0,30.11,SW,226,0.0,0.0,95,0.00,,,0.00,weatherlink.com 1.10,2013-03-06 03:13:00,
2013-03-05 22:28:00,55.5,54.0,30.10,NW,309,0.0,0.0,95,0.00,,,0.00,weatherlink.com 1.10,2013-03-06 03:28:00,
2013-03-05 22:43:00,56.6,56.0,30.10,ESE,113,0.0,2.0,97,0.00,,,0.00,weatherlink.com 1.10,2013-03-06 03:43:00,
2013-03-05 22:58:00,56.8,56.0,30.10,East,101,0.0,0.0,96,0.00,,,0.00,weatherlink.com 1.10,2013-03-06 03:58:00,
2013-03-05 23:13:00,57.1,56.0,30.09,SSW,203,0.0,1.0,97,0.00,,,0.00,weatherlink.com 1.10,2013-03-06 04:13:00,
2013-03-05 23:28:00,57.9,57.0,30.09,SSE,159,2.0,3.0,98,0.00,,,0.00,weatherlink.com 1.10,2013-03-06 04:28:00,
2013-03-05 23:43:00,59.1,59.0,30.08,South,184,4.0,5.0,98,0.00,,,0.00,weatherlink.com 1.10,2013-03-06 04:43:00,
2013-03-05 23:58:00,59.7,59.0,30.07,SSW,194,2.0,7.0,97,0.00,,,0.00,weatherlink.com 1.10,2013-03-06 04:58:00,